CheckWX is a tool to help pilots better visualize weather data.  It is not intended as a substitute for an official pre-flight weather briefing.

15:55:30 UTC

S39 METAR
Prineville Airport
Prineville, Oregon, USA
Current

16 mins ago

KS39 241540Z AUTO 06005KT 10SM CLR 13/04 A3003 RMK AO2
Observed
Jun-24 @ 15:40 UTC
Wind
  • 060° at 5 KTS
Visibility
10 SM
Flight Rules
VFR
Cloud Levels
  • Clear skies
Temperature
13°C / 55°F
Dewpoint
C / 39°F
Humidity
55%
Altimeter
30.03" Hg
Pressure
1016.92 hPa
Previous

36 mins ago

KS39 241520Z AUTO 00000KT 10SM CLR 13/05 A3003 RMK AO2
Observed
Jun-24 @ 15:20 UTC
Visibility
10 SM
Flight Rules
VFR
Cloud Levels
  • Clear skies
Temperature
13°C / 55°F
Dewpoint
C / 41°F
Humidity
59%
Altimeter
30.03" Hg
Pressure
1016.92 hPa
Previous

1 hour ago

KS39 241455Z AUTO 00000KT 10SM CLR 11/05 A3004 RMK AO2
Observed
Jun-24 @ 14:55 UTC
Visibility
10 SM
Flight Rules
VFR
Cloud Levels
  • Clear skies
Temperature
11°C / 52°F
Dewpoint
C / 41°F
Humidity
67%
Altimeter
30.04" Hg
Pressure
1017.32 hPa